createdAt,value
2019-05-12T00:02:14.496Z,0.40
2019-05-12T00:04:44.885Z,0.42
2019-05-12T00:07:15.450Z,0.37
2019-05-12T00:09:47.944Z,0.50
2019-05-12T00:12:18.387Z,0.45
2019-05-12T00:14:49.296Z,0.30
2019-05-12T00:17:19.745Z,0.35
2019-05-12T00:19:50.112Z,0.30
2019-05-12T00:22:22.131Z,0.47
2019-05-12T00:24:52.511Z,0.30
2019-05-12T00:27:24.371Z,0.45
2019-05-12T00:29:54.757Z,0.30
2019-05-12T00:32:25.171Z,0.30
2019-05-12T00:34:55.596Z,0.30
2019-05-12T00:37:26.050Z,0.42
2019-05-12T00:39:58.266Z,0.50
2019-05-12T00:42:28.849Z,0.53
2019-05-12T00:44:59.722Z,0.47
2019-05-12T00:47:30.156Z,0.30
2019-05-12T00:50:01.725Z,0.23
2019-05-12T00:52:32.349Z,0.40
2019-05-12T00:55:02.796Z,0.40
2019-05-12T00:57:33.171Z,0.40
2019-05-12T01:00:05.161Z,0.40
2019-05-12T01:02:37.475Z,0.30
2019-05-12T01:05:09.054Z,0.45
2019-05-12T01:07:39.485Z,0.28
2019-05-12T01:10:10.634Z,0.40
2019-05-12T01:12:41.432Z,0.57
2019-05-12T01:15:12.692Z,0.68
2019-05-12T01:17:43.241Z,0.67
2019-05-12T01:20:17.790Z,0.50
2019-05-12T01:22:50.342Z,0.70
2019-05-12T01:25:19.911Z,0.65
2019-05-12T01:27:50.643Z,0.80
2019-05-12T01:30:21.235Z,1.00
2019-05-12T01:32:51.668Z,0.68
2019-05-12T01:35:22.054Z,0.70
2019-05-12T01:37:52.483Z,1.07
2019-05-12T01:40:22.932Z,1.20
2019-05-12T01:42:53.348Z,0.93
2019-05-12T01:45:23.783Z,0.90
2019-05-12T01:47:55.236Z,0.90
2019-05-12T01:50:28.045Z,1.80
2019-05-12T01:52:59.033Z,0.90
2019-05-12T01:55:29.863Z,0.90
2019-05-12T01:58:00.234Z,1.10
2019-05-12T02:00:30.712Z,1.00
2019-05-12T02:03:01.224Z,0.80
2019-05-12T02:05:31.657Z,1.00
2019-05-12T02:08:02.331Z,0.80
2019-05-12T02:10:32.785Z,1.05
2019-05-12T02:13:03.158Z,1.00
2019-05-12T02:15:33.605Z,1.10
2019-05-12T02:18:04.005Z,1.05
2019-05-12T02:20:34.617Z,0.90
2019-05-12T02:23:04.976Z,0.93
2019-05-12T02:25:37.838Z,0.90
2019-05-12T02:28:09.307Z,1.12
2019-05-12T02:30:41.573Z,1.02
2019-05-12T02:33:11.600Z,1.02
2019-05-12T02:35:44.405Z,1.30
2019-05-12T02:38:14.620Z,1.05
2019-05-12T02:40:45.192Z,1.10
2019-05-12T02:43:15.722Z,1.22
2019-05-12T02:45:46.289Z,1.20
2019-05-12T02:48:16.705Z,1.47
2019-05-12T02:50:47.279Z,1.10
2019-05-12T02:53:17.731Z,1.40
2019-05-12T02:55:48.995Z,1.10
2019-05-12T02:58:25.207Z,1.10
2019-05-12T03:00:55.940Z,1.40
2019-05-12T03:05:58.842Z,1.20
2019-05-12T03:10:59.764Z,1.00
2019-05-12T03:13:34.393Z,1.40
2019-05-12T03:16:04.833Z,1.60
2019-05-12T03:18:35.386Z,1.52
2019-05-12T03:21:06.096Z,1.55
2019-05-12T03:23:36.701Z,1.72
2019-05-12T03:26:07.153Z,1.72
2019-05-12T03:28:37.540Z,1.70
2019-05-12T03:31:08.618Z,1.70
2019-05-12T03:33:44.017Z,1.40
2019-05-12T03:36:17.304Z,1.85
2019-05-12T03:38:44.718Z,1.45
2019-05-12T03:41:15.763Z,1.55
2019-05-12T03:43:46.210Z,1.40
2019-05-12T03:46:16.659Z,1.40
2019-05-12T03:48:47.114Z,1.30
2019-05-12T03:51:17.614Z,1.45
2019-05-12T03:53:48.056Z,1.30
2019-05-12T03:56:18.499Z,1.37
2019-05-12T03:58:48.886Z,1.55
2019-05-12T04:01:19.341Z,1.17
2019-05-12T04:03:49.723Z,1.45
2019-05-12T04:06:20.169Z,1.70
2019-05-12T04:08:50.612Z,1.70
2019-05-12T04:11:21.001Z,1.80
2019-05-12T04:13:54.802Z,2.15
2019-05-12T04:16:24.759Z,2.00
2019-05-12T04:18:55.492Z,2.10
2019-05-12T04:21:25.903Z,2.08
2019-05-12T04:23:56.335Z,2.00
2019-05-12T04:26:26.775Z,1.90
2019-05-12T04:28:57.169Z,2.12
2019-05-12T04:31:27.604Z,2.12
2019-05-12T04:33:57.994Z,1.90
2019-05-12T04:36:28.439Z,2.00
2019-05-12T04:38:59.000Z,2.05
2019-05-12T04:41:29.456Z,2.42
2019-05-12T04:43:59.839Z,2.22
2019-05-12T04:46:30.306Z,2.12
2019-05-12T04:49:00.761Z,2.33
2019-05-12T04:51:34.664Z,2.80
2019-05-12T04:54:05.733Z,2.20
2019-05-12T04:56:36.096Z,2.22
2019-05-12T04:59:06.987Z,2.10
2019-05-12T05:01:37.420Z,2.60
2019-05-12T05:04:07.868Z,2.25
2019-05-12T05:06:38.298Z,1.87
2019-05-12T05:09:09.227Z,2.60
2019-05-12T05:11:39.657Z,2.10
2019-05-12T05:14:10.218Z,2.00
2019-05-12T05:16:40.660Z,2.22
2019-05-12T05:19:11.224Z,1.98
2019-05-12T05:21:43.637Z,1.60
2019-05-12T05:24:14.342Z,2.00
2019-05-12T05:26:46.348Z,1.67
2019-05-12T05:29:16.722Z,1.50
2019-05-12T05:31:47.140Z,1.45
2019-05-12T05:34:17.575Z,2.10
2019-05-12T05:36:51.087Z,1.50
2019-05-12T05:39:20.066Z,1.80
2019-05-12T05:41:51.171Z,1.32
2019-05-12T05:44:23.870Z,1.72
2019-05-12T05:46:56.107Z,1.32
2019-05-12T05:49:25.893Z,1.40
2019-05-12T05:51:57.557Z,1.57
2019-05-12T05:54:31.207Z,1.50
2019-05-12T05:57:03.009Z,1.62
2019-05-12T05:59:36.579Z,1.80
2019-05-12T06:02:05.047Z,1.60
2019-05-12T06:04:39.127Z,1.45
2019-05-12T06:07:07.906Z,1.22
2019-05-12T06:09:38.459Z,2.33
2019-05-12T06:12:10.126Z,1.60
2019-05-12T06:14:41.025Z,1.90
2019-05-12T06:17:11.967Z,1.50
2019-05-12T06:19:43.768Z,1.70
2019-05-12T06:22:18.235Z,1.60
2019-05-12T06:24:49.211Z,1.70
2019-05-12T06:27:21.074Z,1.50
2019-05-12T06:29:52.390Z,1.50
2019-05-12T06:32:24.940Z,1.32
2019-05-12T06:34:56.999Z,1.37
2019-05-12T06:37:26.724Z,1.50
2019-05-12T06:40:00.452Z,1.27
2019-05-12T06:42:29.171Z,1.17
2019-05-12T06:44:59.555Z,1.30
2019-05-12T06:47:29.989Z,1.32
2019-05-12T06:50:00.357Z,1.20
2019-05-12T06:52:30.809Z,1.20
2019-05-12T06:55:03.797Z,1.10
2019-05-12T06:57:34.275Z,1.00
2019-05-12T07:00:06.752Z,1.10
2019-05-12T07:02:49.047Z,0.72
2019-05-12T07:05:09.307Z,0.90
2019-05-12T07:07:45.918Z,0.75
2019-05-12T07:10:33.792Z,0.90
2019-05-12T07:12:55.956Z,0.93
2019-05-12T07:15:16.453Z,1.12
2019-05-12T07:17:49.785Z,1.00
2019-05-12T07:20:20.586Z,1.05
2019-05-12T07:22:51.018Z,1.00
2019-05-12T07:25:22.902Z,1.25
2019-05-12T07:27:59.905Z,1.47
2019-05-12T07:30:32.611Z,2.15
2019-05-12T07:33:04.454Z,1.98
2019-05-12T07:35:35.346Z,1.60
2019-05-12T07:38:05.888Z,1.22
2019-05-12T07:40:37.924Z,1.40
2019-05-12T07:43:16.386Z,1.20
2019-05-12T07:45:44.941Z,1.50
2019-05-12T07:48:15.327Z,1.25
2019-05-12T07:50:50.270Z,1.65
2019-05-12T07:53:17.776Z,2.80
2019-05-12T07:55:49.470Z,1.62
2019-05-12T07:58:20.296Z,1.50
2019-05-12T08:00:53.935Z,2.12
2019-05-12T08:03:24.313Z,1.80
2019-05-12T08:05:59.796Z,2.08
2019-05-12T08:08:27.489Z,1.35
2019-05-12T08:10:57.944Z,1.60
2019-05-12T08:13:31.181Z,1.70
2019-05-12T08:16:00.370Z,1.90
2019-05-12T08:18:37.056Z,2.58
2019-05-12T08:21:03.795Z,2.22
2019-05-12T08:23:37.613Z,1.87
2019-05-12T08:26:12.549Z,3.08
2019-05-12T08:28:40.491Z,2.02
2019-05-12T08:31:10.663Z,1.65
2019-05-12T08:33:43.485Z,1.15
2019-05-12T08:36:16.177Z,1.80
2019-05-12T08:38:45.132Z,1.30
2019-05-12T08:41:15.573Z,1.20
2019-05-12T08:43:49.797Z,1.45
2019-05-12T08:46:18.025Z,2.40
2019-05-12T08:48:51.407Z,1.30
2019-05-12T08:51:20.432Z,1.05
2019-05-12T08:53:53.964Z,1.35
2019-05-12T08:56:26.118Z,1.20
2019-05-12T08:58:56.066Z,1.57
2019-05-12T09:01:30.626Z,1.27
2019-05-12T09:04:00.401Z,1.50
2019-05-12T09:06:31.331Z,1.70
2019-05-12T09:09:03.507Z,1.30
2019-05-12T09:11:34.268Z,1.20
2019-05-12T09:14:05.803Z,1.40
2019-05-12T09:16:36.548Z,1.15
2019-05-12T09:19:10.129Z,1.15
2019-05-12T09:21:39.035Z,1.15
2019-05-12T09:24:13.662Z,1.70
2019-05-12T09:26:43.327Z,1.32
2019-05-12T09:29:14.011Z,2.00
2019-05-12T09:31:44.653Z,1.10
2019-05-12T09:34:16.560Z,1.70
2019-05-12T09:36:53.781Z,1.45
2019-05-12T09:39:19.268Z,1.35
2019-05-12T09:41:52.604Z,1.30
2019-05-12T09:44:26.419Z,1.40
2019-05-12T09:46:54.955Z,2.10
2019-05-12T09:49:30.961Z,1.00
2019-05-12T09:51:57.398Z,0.90
2019-05-12T09:54:35.561Z,1.10
2019-05-12T09:56:59.942Z,0.90
2019-05-12T09:59:30.424Z,0.60
2019-05-12T10:02:00.876Z,1.00
2019-05-12T10:04:33.079Z,0.65
2019-05-12T10:07:03.847Z,1.55
2019-05-12T10:09:34.592Z,0.80
2019-05-12T10:12:05.639Z,0.90
2019-05-12T10:14:40.626Z,1.52
2019-05-12T10:17:08.292Z,0.98
2019-05-12T10:19:39.845Z,0.90
2019-05-12T10:22:11.016Z,0.80
2019-05-12T10:24:52.123Z,1.00
2019-05-12T10:27:14.488Z,0.90
2019-05-12T10:29:44.948Z,0.80
2019-05-12T10:32:15.334Z,0.85
2019-05-12T10:34:45.778Z,0.93
2019-05-12T10:37:19.272Z,0.72
2019-05-12T10:39:48.210Z,1.00
2019-05-12T10:42:18.590Z,0.93
2019-05-12T10:44:49.036Z,0.90
2019-05-12T10:47:19.405Z,0.98
2019-05-12T10:49:50.184Z,0.80
2019-05-12T10:52:20.572Z,0.80
2019-05-12T10:54:50.990Z,1.00
2019-05-12T10:57:21.371Z,1.10
2019-05-12T10:59:53.364Z,1.80
2019-05-12T11:02:26.544Z,1.80
2019-05-12T11:04:56.045Z,1.50
2019-05-12T11:07:28.264Z,1.55
2019-05-12T11:10:05.200Z,1.52
2019-05-12T11:15:06.350Z,1.30
2019-05-12T11:17:46.039Z,1.32
2019-05-12T11:20:14.153Z,1.22
2019-05-12T11:22:44.792Z,1.40
2019-05-12T11:25:15.260Z,1.50
2019-05-12T11:27:45.728Z,1.10
2019-05-12T11:30:19.031Z,1.45
2019-05-12T11:32:49.461Z,1.67
2019-05-12T11:35:19.829Z,1.37
2019-05-12T11:37:50.247Z,1.50
2019-05-12T11:40:20.687Z,1.45
2019-05-12T11:42:59.040Z,1.60
2019-05-12T11:45:24.217Z,1.37
2019-05-12T11:47:56.942Z,1.50
2019-05-12T11:50:26.799Z,1.57
2019-05-12T11:52:57.172Z,1.57
2019-05-12T11:55:31.599Z,1.20
2019-05-12T11:58:00.473Z,1.20
2019-05-12T12:00:33.778Z,1.60
2019-05-12T12:03:12.698Z,0.93
2019-05-12T12:05:38.241Z,1.00
2019-05-12T12:08:08.428Z,1.30
2019-05-12T12:10:39.984Z,1.17
2019-05-12T12:13:10.739Z,1.25
2019-05-12T12:15:41.290Z,1.22
2019-05-12T12:18:15.104Z,1.20
2019-05-12T12:20:44.334Z,1.40
2019-05-12T12:23:15.077Z,1.27
2019-05-12T12:25:48.419Z,1.20
2019-05-12T12:28:17.739Z,1.00
2019-05-12T12:30:52.470Z,1.15
2019-05-12T12:33:20.195Z,1.30
2019-05-12T12:35:55.577Z,1.10
2019-05-12T12:38:22.628Z,1.32
2019-05-12T12:40:53.567Z,1.10
2019-05-12T12:43:24.858Z,1.10
2019-05-12T12:46:00.462Z,1.10
2019-05-12T12:48:30.895Z,1.30
2019-05-12T12:51:01.264Z,1.07
2019-05-12T12:53:31.698Z,1.00
2019-05-12T12:56:04.166Z,0.93
2019-05-12T12:58:34.609Z,1.30
2019-05-12T13:01:05.334Z,1.12
2019-05-12T13:03:35.788Z,1.05
2019-05-12T13:06:06.179Z,1.42
2019-05-12T13:08:36.622Z,1.40
2019-05-12T13:11:06.994Z,1.20
2019-05-12T13:13:37.453Z,1.27
2019-05-12T13:16:07.881Z,0.90
2019-05-12T13:18:38.346Z,1.00
2019-05-12T13:21:08.727Z,1.17
2019-05-12T13:23:41.173Z,1.20
2019-05-12T13:26:13.346Z,1.20
2019-05-12T13:28:45.513Z,1.05
2019-05-12T13:31:16.184Z,1.07
2019-05-12T13:33:49.424Z,1.57
2019-05-12T13:36:19.031Z,1.45
2019-05-12T13:38:49.477Z,0.95
2019-05-12T13:41:20.205Z,1.20
2019-05-12T13:43:56.156Z,1.07
2019-05-12T13:46:23.913Z,1.12
2019-05-12T13:48:56.967Z,0.98
2019-05-12T13:51:26.645Z,1.57
2019-05-12T13:53:57.097Z,1.60
2019-05-12T13:56:32.755Z,1.12
2019-05-12T13:58:59.542Z,1.95
2019-05-12T14:01:31.901Z,1.70
2019-05-12T14:04:03.920Z,1.55
2019-05-12T14:06:37.775Z,1.27
2019-05-12T14:09:07.239Z,0.78
2019-05-12T14:11:37.680Z,1.30
2019-05-12T14:14:11.523Z,1.20
2019-05-12T14:16:44.698Z,1.40
2019-05-12T14:19:14.555Z,1.42
2019-05-12T14:21:45.231Z,1.47
2019-05-12T14:24:15.593Z,0.90
2019-05-12T14:26:49.422Z,0.60
2019-05-12T14:29:20.377Z,0.70
2019-05-12T14:31:56.032Z,0.80
2019-05-12T14:34:23.627Z,0.70
2019-05-12T14:37:05.019Z,1.72
2019-05-12T14:39:26.260Z,1.80
2019-05-12T14:41:56.722Z,1.57
2019-05-12T14:44:27.149Z,0.53
2019-05-12T14:46:57.601Z,0.60
2019-05-12T14:49:30.429Z,0.70
2019-05-12T14:52:03.201Z,0.50
2019-05-12T14:54:34.297Z,0.93
2019-05-12T14:57:05.040Z,1.00
2019-05-12T14:59:40.814Z,1.10
2019-05-12T15:02:07.481Z,0.98
2019-05-12T15:04:37.914Z,0.57
2019-05-12T15:07:10.032Z,0.68
2019-05-12T15:09:41.627Z,0.55
2019-05-12T15:12:13.907Z,0.68
2019-05-12T15:14:45.558Z,0.72
2019-05-12T15:17:22.628Z,0.98
2019-05-12T15:19:51.283Z,0.75
2019-05-12T15:22:24.401Z,1.00
2019-05-12T15:24:58.807Z,0.90
2019-05-12T15:27:39.611Z,1.20
2019-05-12T15:30:01.338Z,0.78
2019-05-12T15:32:34.019Z,1.10
2019-05-12T15:35:04.873Z,1.00
2019-05-12T15:37:39.019Z,1.00
2019-05-12T15:40:08.412Z,0.88
2019-05-12T15:42:38.837Z,1.30
2019-05-12T15:45:12.889Z,0.80
2019-05-12T15:50:14.902Z,0.70
2019-05-12T15:52:45.963Z,1.00
2019-05-12T15:55:18.407Z,1.10
2019-05-12T15:57:49.111Z,0.70
2019-05-12T16:00:20.646Z,0.93
2019-05-12T16:02:53.326Z,1.05
2019-05-12T16:05:28.786Z,0.60
2019-05-12T16:07:55.370Z,0.80
2019-05-12T16:10:25.823Z,1.00
2019-05-12T16:12:56.429Z,0.93
2019-05-12T16:15:26.863Z,1.25
2019-05-12T16:17:59.591Z,1.05
2019-05-12T16:20:29.351Z,1.10
2019-05-12T16:22:59.786Z,1.60
2019-05-12T16:25:31.121Z,1.20
2019-05-12T16:28:01.834Z,1.65
2019-05-12T16:30:33.944Z,1.10
2019-05-12T16:33:04.202Z,1.10
2019-05-12T16:35:34.675Z,1.20
2019-05-12T16:38:13.661Z,1.37
2019-05-12T16:40:39.452Z,1.50
2019-05-12T16:43:09.197Z,1.50
2019-05-12T16:45:39.602Z,1.20
2019-05-12T16:48:26.633Z,0.80
2019-05-12T16:50:43.784Z,0.80
2019-05-12T16:53:21.612Z,0.45
2019-05-12T16:55:49.756Z,0.50
2019-05-12T16:58:18.150Z,1.10
2019-05-12T17:00:49.710Z,0.90
2019-05-12T17:03:20.634Z,0.55
2019-05-12T17:05:55.694Z,0.50
2019-05-12T17:08:24.065Z,0.70
2019-05-12T17:11:01.282Z,0.37
2019-05-12T17:13:28.009Z,0.60
2019-05-12T17:16:00.177Z,0.60
2019-05-12T17:18:33.731Z,0.50
2019-05-12T17:21:04.217Z,0.60
2019-05-12T17:23:34.985Z,0.60
2019-05-12T17:26:05.477Z,0.68
2019-05-12T17:28:35.929Z,0.47
2019-05-12T17:31:06.300Z,0.60
2019-05-12T17:33:39.249Z,0.50
2019-05-12T17:36:15.213Z,0.50
2019-05-12T17:38:40.877Z,0.50
2019-05-12T17:41:14.575Z,0.33
2019-05-12T17:43:51.984Z,0.50
2019-05-12T17:46:18.181Z,0.60
2019-05-12T17:48:47.453Z,0.50
2019-05-12T17:51:20.481Z,0.70
2019-05-12T17:53:49.927Z,0.70
2019-05-12T17:56:25.322Z,0.40
2019-05-12T17:58:52.409Z,0.60
2019-05-12T18:01:31.042Z,0.62
2019-05-12T18:03:54.919Z,0.70
2019-05-12T18:06:26.915Z,0.98
2019-05-12T18:08:57.428Z,0.72
2019-05-12T18:11:28.182Z,0.70
2019-05-12T18:14:02.486Z,0.53
2019-05-12T18:16:30.629Z,0.53
2019-05-12T18:19:03.211Z,0.50
2019-05-12T18:21:34.031Z,0.70
2019-05-12T18:24:09.841Z,0.70
2019-05-12T18:26:36.915Z,0.62
2019-05-12T18:29:07.383Z,0.68
2019-05-12T18:31:37.755Z,0.65
2019-05-12T18:34:08.233Z,0.65
2019-05-12T18:36:38.601Z,0.65
2019-05-12T18:39:11.874Z,0.75
2019-05-12T18:41:43.748Z,0.65
2019-05-12T18:44:15.892Z,1.50
2019-05-12T18:46:46.697Z,0.82
2019-05-12T18:49:17.474Z,1.15
2019-05-12T18:51:48.992Z,0.82
2019-05-12T18:54:19.961Z,1.10
2019-05-12T18:56:52.400Z,0.90
2019-05-12T18:59:22.389Z,1.10
2019-05-12T19:01:54.097Z,0.60
2019-05-12T19:04:24.669Z,1.00
2019-05-12T19:06:55.104Z,0.80
2019-05-12T19:09:25.527Z,1.20
2019-05-12T19:11:55.975Z,1.20
2019-05-12T19:14:34.809Z,1.00
2019-05-12T19:16:58.467Z,0.80
2019-05-12T19:19:28.895Z,0.70
2019-05-12T19:22:06.746Z,0.90
2019-05-12T19:24:36.048Z,0.95
2019-05-12T19:27:04.379Z,0.88
2019-05-12T19:29:42.692Z,4.22
2019-05-12T19:32:07.171Z,0.90
2019-05-12T19:34:39.407Z,1.10
2019-05-12T19:37:14.111Z,1.10
2019-05-12T19:39:44.536Z,0.70
2019-05-12T19:42:18.630Z,0.98
2019-05-12T19:44:47.249Z,0.90
2019-05-12T19:47:21.272Z,0.90
2019-05-12T19:49:50.725Z,0.72
2019-05-12T19:54:51.329Z,0.72
2019-05-12T19:57:25.981Z,0.70
2019-05-12T19:59:55.746Z,0.90
2019-05-12T20:02:26.164Z,0.80
2019-05-12T20:04:56.881Z,0.93
2019-05-12T20:07:27.568Z,0.90
2019-05-12T20:10:00.644Z,1.10
2019-05-12T20:12:30.068Z,0.80
2019-05-12T20:15:00.526Z,0.75
2019-05-12T20:17:33.854Z,0.80
2019-05-12T20:20:05.420Z,0.65
2019-05-12T20:22:36.976Z,0.70
2019-05-12T20:25:07.896Z,0.60
2019-05-12T20:27:38.346Z,0.53
2019-05-12T20:30:17.198Z,0.80
2019-05-12T20:32:43.536Z,0.62
2019-05-12T20:35:14.569Z,0.78
2019-05-12T20:37:53.157Z,0.75
2019-05-12T20:40:17.736Z,0.70
2019-05-12T20:43:07.535Z,0.78
2019-05-12T20:45:25.614Z,0.80
2019-05-12T20:47:53.324Z,0.75
2019-05-12T20:50:32.224Z,0.70
2019-05-12T20:52:58.970Z,0.72
2019-05-12T20:55:30.145Z,0.68
2019-05-12T20:58:04.432Z,0.55
2019-05-12T21:00:38.765Z,0.57
2019-05-12T21:05:36.251Z,0.70
2019-05-12T21:08:11.660Z,0.62
2019-05-12T21:10:38.725Z,0.93
2019-05-12T21:13:09.184Z,0.72
2019-05-12T21:15:42.782Z,0.80
2019-05-12T21:18:11.675Z,0.60
2019-05-12T21:20:46.405Z,0.60
2019-05-12T21:23:14.154Z,0.70
2019-05-12T21:25:52.100Z,0.60
2019-05-12T21:28:16.646Z,0.80
2019-05-12T21:30:48.077Z,0.50
2019-05-12T21:33:19.172Z,0.70
2019-05-12T21:35:49.678Z,0.70
2019-05-12T21:38:27.547Z,0.60
2019-05-12T21:40:52.126Z,0.60
2019-05-12T21:43:22.490Z,0.57
2019-05-12T21:45:53.690Z,0.57
2019-05-12T21:48:29.016Z,0.60
2019-05-12T21:50:56.344Z,0.70
2019-05-12T21:53:26.955Z,0.53
2019-05-12T21:56:04.135Z,0.70
2019-05-12T21:58:29.401Z,0.60
2019-05-12T22:01:05.141Z,0.45
2019-05-12T22:03:34.649Z,0.50
2019-05-12T22:06:15.252Z,0.40
2019-05-12T22:08:37.289Z,0.65
2019-05-12T22:11:11.459Z,0.60
2019-05-12T22:13:46.853Z,0.45
2019-05-12T22:16:14.030Z,0.53
2019-05-12T22:18:44.021Z,0.90
2019-05-12T22:21:14.407Z,0.50
2019-05-12T22:23:51.442Z,0.60
2019-05-12T22:26:16.878Z,0.60
2019-05-12T22:28:50.863Z,0.55
2019-05-12T22:31:19.369Z,0.60
2019-05-12T22:33:53.439Z,0.55
2019-05-12T22:36:26.868Z,0.40
2019-05-12T22:39:19.994Z,0.40
2019-05-12T22:42:03.553Z,0.50
2019-05-12T22:44:35.246Z,0.55
2019-05-12T22:47:13.010Z,0.50
2019-05-12T22:49:39.889Z,0.42
2019-05-12T22:52:10.432Z,0.50
2019-05-12T22:54:46.898Z,0.65
2019-05-12T22:57:16.873Z,0.45
2019-05-12T22:59:48.433Z,0.68
2019-05-12T23:02:28.059Z,0.50
2019-05-12T23:04:55.092Z,0.57
2019-05-12T23:07:29.660Z,0.68
2019-05-12T23:10:05.924Z,0.62
2019-05-12T23:12:34.330Z,0.60
